sensor_id;sensor_type;location;lat;lon;timestamp;temperature;humidity
21678;DHT22;11000;50.360;7.582;2022-10-10T00:00:29;8.30;99.90
21678;DHT22;11000;50.360;7.582;2022-10-10T00:02:50;8.30;99.90
21678;DHT22;11000;50.360;7.582;2022-10-10T00:05:10;8.20;99.90
21678;DHT22;11000;50.360;7.582;2022-10-10T00:07:31;8.30;99.90
21678;DHT22;11000;50.360;7.582;2022-10-10T00:09:51;8.20;99.90
21678;DHT22;11000;50.360;7.582;2022-10-10T00:12:12;8.10;99.90
21678;DHT22;11000;50.360;7.582;2022-10-10T00:14:33;8.20;99.90
21678;DHT22;11000;50.360;7.582;2022-10-10T00:16:53;8.10;99.90
21678;DHT22;11000;50.360;7.582;2022-10-10T00:19:14;8.10;99.90
21678;DHT22;11000;50.360;7.582;2022-10-10T00:21:35;8.10;99.90
21678;DHT22;11000;50.360;7.582;2022-10-10T00:23:55;8.10;99.90
21678;DHT22;11000;50.360;7.582;2022-10-10T00:26:16;8.10;99.90
21678;DHT22;11000;50.360;7.582;2022-10-10T00:28:36;8.10;99.90
21678;DHT22;11000;50.360;7.582;2022-10-10T00:30:57;8.10;99.90
21678;DHT22;11000;50.360;7.582;2022-10-10T00:33:18;8.00;99.90
21678;DHT22;11000;50.360;7.582;2022-10-10T00:35:39;8.00;99.90
21678;DHT22;11000;50.360;7.582;2022-10-10T00:38:00;8.00;99.90
21678;DHT22;11000;50.360;7.582;2022-10-10T00:40:21;8.00;99.90
21678;DHT22;11000;50.360;7.582;2022-10-10T00:42:42;8.00;99.90
21678;DHT22;11000;50.360;7.582;2022-10-10T00:45:23;8.00;99.90
21678;DHT22;11000;50.360;7.582;2022-10-10T00:47:44;8.00;99.90
21678;DHT22;11000;50.360;7.582;2022-10-10T00:50:05;7.90;99.90
21678;DHT22;11000;50.360;7.582;2022-10-10T00:52:26;7.90;99.90
21678;DHT22;11000;50.360;7.582;2022-10-10T00:54:46;7.80;99.90
21678;DHT22;11000;50.360;7.582;2022-10-10T00:57:11;7.80;99.90
21678;DHT22;11000;50.360;7.582;2022-10-10T00:59:33;7.90;99.90
21678;DHT22;11000;50.360;7.582;2022-10-10T01:01:56;7.90;99.90
21678;DHT22;11000;50.360;7.582;2022-10-10T01:04:39;7.90;99.90
21678;DHT22;11000;50.360;7.582;2022-10-10T01:07:02;7.90;99.90
21678;DHT22;11000;50.360;7.582;2022-10-10T01:09:24;7.90;99.90
21678;DHT22;11000;50.360;7.582;2022-10-10T01:14:40;7.80;99.90
21678;DHT22;11000;50.360;7.582;2022-10-10T01:17:27;7.80;99.90
21678;DHT22;11000;50.360;7.582;2022-10-10T01:27:53;7.80;99.90
21678;DHT22;11000;50.360;7.582;2022-10-10T01:30:21;7.70;99.90
21678;DHT22;11000;50.360;7.582;2022-10-10T01:40:25;7.70;99.90
21678;DHT22;11000;50.360;7.582;2022-10-10T01:42:53;7.60;99.90
21678;DHT22;11000;50.360;7.582;2022-10-10T01:45:14;7.70;99.90
21678;DHT22;11000;50.360;7.582;2022-10-10T01:47:35;7.70;99.90
21678;DHT22;11000;50.360;7.582;2022-10-10T01:49:59;7.70;99.90
21678;DHT22;11000;50.360;7.582;2022-10-10T01:52:40;7.70;99.90
21678;DHT22;11000;50.360;7.582;2022-10-10T01:55:44;7.70;99.90
21678;DHT22;11000;50.360;7.582;2022-10-10T01:58:10;7.70;99.90
21678;DHT22;11000;50.360;7.582;2022-10-10T02:00:47;7.60;99.90
21678;DHT22;11000;50.360;7.582;2022-10-10T02:03:15;7.60;99.90
21678;DHT22;11000;50.360;7.582;2022-10-10T02:08:35;7.60;99.90
21678;DHT22;11000;50.360;7.582;2022-10-10T02:11:03;7.60;99.90
21678;DHT22;11000;50.360;7.582;2022-10-10T02:13:28;7.60;99.90
21678;DHT22;11000;50.360;7.582;2022-10-10T02:15:54;7.60;99.90
21678;DHT22;11000;50.360;7.582;2022-10-10T02:18:19;7.60;99.90
21678;DHT22;11000;50.360;7.582;2022-10-10T02:20:42;7.50;99.90
21678;DHT22;11000;50.360;7.582;2022-10-10T02:23:04;7.50;99.90
21678;DHT22;11000;50.360;7.582;2022-10-10T02:25:28;7.50;99.90
21678;DHT22;11000;50.360;7.582;2022-10-10T02:28:14;7.40;99.90
21678;DHT22;11000;50.360;7.582;2022-10-10T02:30:39;7.40;99.90
21678;DHT22;11000;50.360;7.582;2022-10-10T02:33:03;7.40;99.90
21678;DHT22;11000;50.360;7.582;2022-10-10T02:35:29;7.30;99.90
21678;DHT22;11000;50.360;7.582;2022-10-10T02:37:59;7.30;99.90
21678;DHT22;11000;50.360;7.582;2022-10-10T02:40:24;7.30;99.90
21678;DHT22;11000;50.360;7.582;2022-10-10T02:42:46;7.40;99.90
21678;DHT22;11000;50.360;7.582;2022-10-10T02:45:08;7.30;99.90
21678;DHT22;11000;50.360;7.582;2022-10-10T02:47:47;7.30;99.90
21678;DHT22;11000;50.360;7.582;2022-10-10T02:50:07;7.30;99.90
21678;DHT22;11000;50.360;7.582;2022-10-10T02:52:28;7.30;99.90
21678;DHT22;11000;50.360;7.582;2022-10-10T02:54:48;7.30;99.90
21678;DHT22;11000;50.360;7.582;2022-10-10T02:57:09;7.20;99.90
21678;DHT22;11000;50.360;7.582;2022-10-10T02:59:30;7.20;99.90
21678;DHT22;11000;50.360;7.582;2022-10-10T03:01:51;7.20;99.90
21678;DHT22;11000;50.360;7.582;2022-10-10T03:04:12;7.20;99.90
21678;DHT22;11000;50.360;7.582;2022-10-10T03:06:32;7.20;99.90
21678;DHT22;11000;50.360;7.582;2022-10-10T03:08:53;7.20;99.90
21678;DHT22;11000;50.360;7.582;2022-10-10T03:11:14;7.10;99.90
21678;DHT22;11000;50.360;7.582;2022-10-10T03:13:35;7.10;99.90
21678;DHT22;11000;50.360;7.582;2022-10-10T03:19:13;7.20;99.90
21678;DHT22;11000;50.360;7.582;2022-10-10T03:21:34;7.20;99.90
21678;DHT22;11000;50.360;7.582;2022-10-10T03:23:55;7.10;99.90
21678;DHT22;11000;50.360;7.582;2022-10-10T03:26:16;7.10;99.90
21678;DHT22;11000;50.360;7.582;2022-10-10T03:28:37;7.10;99.90
21678;DHT22;11000;50.360;7.582;2022-10-10T03:30:57;7.00;99.90
21678;DHT22;11000;50.360;7.582;2022-10-10T03:33:18;7.10;99.90
21678;DHT22;11000;50.360;7.582;2022-10-10T03:35:39;7.00;99.90
21678;DHT22;11000;50.360;7.582;2022-10-10T03:37:59;7.10;99.90
21678;DHT22;11000;50.360;7.582;2022-10-10T03:40:20;7.00;99.90
21678;DHT22;11000;50.360;7.582;2022-10-10T03:42:41;7.00;99.90
21678;DHT22;11000;50.360;7.582;2022-10-10T03:45:01;7.00;99.90
21678;DHT22;11000;50.360;7.582;2022-10-10T03:47:22;6.90;99.90
21678;DHT22;11000;50.360;7.582;2022-10-10T03:49:42;6.90;99.90
21678;DHT22;11000;50.360;7.582;2022-10-10T03:52:03;7.00;99.90
21678;DHT22;11000;50.360;7.582;2022-10-10T03:54:23;7.00;99.90
21678;DHT22;11000;50.360;7.582;2022-10-10T03:56:44;7.00;99.90
21678;DHT22;11000;50.360;7.582;2022-10-10T03:59:04;7.00;99.90
21678;DHT22;11000;50.360;7.582;2022-10-10T04:01:29;7.00;99.90
21678;DHT22;11000;50.360;7.582;2022-10-10T04:03:50;7.00;99.90
21678;DHT22;11000;50.360;7.582;2022-10-10T04:06:10;6.90;99.90
21678;DHT22;11000;50.360;7.582;2022-10-10T04:08:30;6.90;99.90
21678;DHT22;11000;50.360;7.582;2022-10-10T04:10:52;6.90;99.90
21678;DHT22;11000;50.360;7.582;2022-10-10T04:13:13;6.90;99.90
21678;DHT22;11000;50.360;7.582;2022-10-10T04:15:34;6.90;99.90
21678;DHT22;11000;50.360;7.582;2022-10-10T04:17:54;6.90;99.90
21678;DHT22;11000;50.360;7.582;2022-10-10T04:20:15;6.90;99.90
21678;DHT22;11000;50.360;7.582;2022-10-10T04:22:36;6.90;99.90
21678;DHT22;11000;50.360;7.582;2022-10-10T04:24:56;6.90;99.90
21678;DHT22;11000;50.360;7.582;2022-10-10T04:27:17;6.80;99.90
21678;DHT22;11000;50.360;7.582;2022-10-10T04:29:37;6.90;99.90
21678;DHT22;11000;50.360;7.582;2022-10-10T04:31:58;6.90;99.90
21678;DHT22;11000;50.360;7.582;2022-10-10T04:34:18;6.90;99.90
21678;DHT22;11000;50.360;7.582;2022-10-10T04:36:39;6.90;99.90
21678;DHT22;11000;50.360;7.582;2022-10-10T04:39:00;6.90;99.90
21678;DHT22;11000;50.360;7.582;2022-10-10T04:41:20;6.90;99.90
21678;DHT22;11000;50.360;7.582;2022-10-10T04:43:41;6.90;99.90
21678;DHT22;11000;50.360;7.582;2022-10-10T04:46:01;6.80;99.90
21678;DHT22;11000;50.360;7.582;2022-10-10T04:48:23;6.80;99.90
21678;DHT22;11000;50.360;7.582;2022-10-10T04:50:43;6.80;99.90
21678;DHT22;11000;50.360;7.582;2022-10-10T04:53:04;6.80;99.90
21678;DHT22;11000;50.360;7.582;2022-10-10T04:55:24;6.80;99.90
21678;DHT22;11000;50.360;7.582;2022-10-10T04:57:45;6.80;99.90
21678;DHT22;11000;50.360;7.582;2022-10-10T05:00:06;6.70;99.90
21678;DHT22;11000;50.360;7.582;2022-10-10T05:02:27;6.70;99.90
21678;DHT22;11000;50.360;7.582;2022-10-10T05:04:47;6.70;99.90
21678;DHT22;11000;50.360;7.582;2022-10-10T05:07:08;6.70;99.90
21678;DHT22;11000;50.360;7.582;2022-10-10T05:09:28;6.70;99.90
21678;DHT22;11000;50.360;7.582;2022-10-10T05:11:49;6.70;99.90
21678;DHT22;11000;50.360;7.582;2022-10-10T05:14:09;6.70;99.90
21678;DHT22;11000;50.360;7.582;2022-10-10T05:16:30;6.70;99.90
21678;DHT22;11000;50.360;7.582;2022-10-10T05:18:51;6.70;99.90
21678;DHT22;11000;50.360;7.582;2022-10-10T05:21:11;6.80;99.90
21678;DHT22;11000;50.360;7.582;2022-10-10T05:23:32;6.70;99.90
21678;DHT22;11000;50.360;7.582;2022-10-10T05:25:53;6.70;99.90
21678;DHT22;11000;50.360;7.582;2022-10-10T05:28:13;6.70;99.90
21678;DHT22;11000;50.360;7.582;2022-10-10T05:30:34;6.70;99.90
21678;DHT22;11000;50.360;7.582;2022-10-10T05:32:55;6.60;99.90
21678;DHT22;11000;50.360;7.582;2022-10-10T05:35:15;6.70;99.90
21678;DHT22;11000;50.360;7.582;2022-10-10T05:37:37;6.70;99.90
21678;DHT22;11000;50.360;7.582;2022-10-10T05:39:57;6.70;99.90
21678;DHT22;11000;50.360;7.582;2022-10-10T05:42:18;6.70;99.90
21678;DHT22;11000;50.360;7.582;2022-10-10T05:44:39;6.60;99.90
21678;DHT22;11000;50.360;7.582;2022-10-10T05:46:59;6.60;99.90
21678;DHT22;11000;50.360;7.582;2022-10-10T05:49:20;6.60;99.90
21678;DHT22;11000;50.360;7.582;2022-10-10T05:51:40;6.60;99.90
21678;DHT22;11000;50.360;7.582;2022-10-10T05:54:01;6.60;99.90
21678;DHT22;11000;50.360;7.582;2022-10-10T05:56:24;6.60;99.90
21678;DHT22;11000;50.360;7.582;2022-10-10T05:58:44;6.70;99.90
21678;DHT22;11000;50.360;7.582;2022-10-10T06:01:06;6.70;99.90
21678;DHT22;11000;50.360;7.582;2022-10-10T06:03:26;6.70;99.90
21678;DHT22;11000;50.360;7.582;2022-10-10T06:05:50;6.70;99.90
21678;DHT22;11000;50.360;7.582;2022-10-10T06:08:11;6.70;99.90
21678;DHT22;11000;50.360;7.582;2022-10-10T06:10:45;6.80;99.90
21678;DHT22;11000;50.360;7.582;2022-10-10T06:13:06;6.80;99.90
21678;DHT22;11000;50.360;7.582;2022-10-10T06:15:26;6.90;99.90
21678;DHT22;11000;50.360;7.582;2022-10-10T06:17:47;6.90;99.90
21678;DHT22;11000;50.360;7.582;2022-10-10T06:20:07;6.90;99.90
21678;DHT22;11000;50.360;7.582;2022-10-10T06:22:29;6.90;99.90
21678;DHT22;11000;50.360;7.582;2022-10-10T06:24:49;6.70;99.90
21678;DHT22;11000;50.360;7.582;2022-10-10T06:27:10;6.80;99.90
21678;DHT22;11000;50.360;7.582;2022-10-10T06:29:30;6.80;99.90
21678;DHT22;11000;50.360;7.582;2022-10-10T06:31:51;6.90;99.90
21678;DHT22;11000;50.360;7.582;2022-10-10T06:34:11;6.80;99.90
21678;DHT22;11000;50.360;7.582;2022-10-10T06:36:32;6.70;99.90
21678;DHT22;11000;50.360;7.582;2022-10-10T06:38:53;6.70;99.90
21678;DHT22;11000;50.360;7.582;2022-10-10T06:41:13;6.80;99.90
21678;DHT22;11000;50.360;7.582;2022-10-10T06:43:35;6.80;99.90
21678;DHT22;11000;50.360;7.582;2022-10-10T06:45:59;6.80;99.90
21678;DHT22;11000;50.360;7.582;2022-10-10T06:48:20;6.90;99.90
21678;DHT22;11000;50.360;7.582;2022-10-10T06:50:40;6.90;99.90
21678;DHT22;11000;50.360;7.582;2022-10-10T06:53:06;7.00;99.90
21678;DHT22;11000;50.360;7.582;2022-10-10T06:55:27;7.00;99.90
21678;DHT22;11000;50.360;7.582;2022-10-10T06:57:47;7.10;99.90
21678;DHT22;11000;50.360;7.582;2022-10-10T07:00:10;7.20;99.90
21678;DHT22;11000;50.360;7.582;2022-10-10T07:02:32;7.40;99.90
21678;DHT22;11000;50.360;7.582;2022-10-10T07:04:53;7.80;99.90
21678;DHT22;11000;50.360;7.582;2022-10-10T07:07:13;8.00;99.90
21678;DHT22;11000;50.360;7.582;2022-10-10T07:09:34;8.30;99.90
21678;DHT22;11000;50.360;7.582;2022-10-10T07:11:54;8.70;99.90
21678;DHT22;11000;50.360;7.582;2022-10-10T07:14:15;9.00;99.90
21678;DHT22;11000;50.360;7.582;2022-10-10T07:16:35;9.20;99.90
21678;DHT22;11000;50.360;7.582;2022-10-10T07:18:56;9.60;99.90
21678;DHT22;11000;50.360;7.582;2022-10-10T07:21:17;9.80;99.90
21678;DHT22;11000;50.360;7.582;2022-10-10T07:23:37;10.20;99.90
21678;DHT22;11000;50.360;7.582;2022-10-10T07:26:07;10.30;99.90
21678;DHT22;11000;50.360;7.582;2022-10-10T07:28:30;10.40;99.90
21678;DHT22;11000;50.360;7.582;2022-10-10T07:31:00;10.70;99.90
21678;DHT22;11000;50.360;7.582;2022-10-10T07:33:21;10.70;99.90
21678;DHT22;11000;50.360;7.582;2022-10-10T07:35:42;10.80;99.90
21678;DHT22;11000;50.360;7.582;2022-10-10T07:38:03;11.00;99.90
21678;DHT22;11000;50.360;7.582;2022-10-10T07:40:23;11.10;99.90
21678;DHT22;11000;50.360;7.582;2022-10-10T07:42:44;10.80;99.90
21678;DHT22;11000;50.360;7.582;2022-10-10T07:45:05;10.70;99.90
21678;DHT22;11000;50.360;7.582;2022-10-10T07:47:26;10.90;99.90
21678;DHT22;11000;50.360;7.582;2022-10-10T07:49:46;10.80;99.90
21678;DHT22;11000;50.360;7.582;2022-10-10T07:52:07;10.60;99.90
21678;DHT22;11000;50.360;7.582;2022-10-10T07:54:28;10.70;99.90
21678;DHT22;11000;50.360;7.582;2022-10-10T07:56:49;10.80;99.90
21678;DHT22;11000;50.360;7.582;2022-10-10T07:59:10;10.80;99.90
21678;DHT22;11000;50.360;7.582;2022-10-10T08:01:30;10.80;99.90
21678;DHT22;11000;50.360;7.582;2022-10-10T08:03:51;10.80;99.90
21678;DHT22;11000;50.360;7.582;2022-10-10T08:06:14;10.60;99.90
21678;DHT22;11000;50.360;7.582;2022-10-10T08:08:36;10.80;99.90
21678;DHT22;11000;50.360;7.582;2022-10-10T08:10:57;10.70;99.90
21678;DHT22;11000;50.360;7.582;2022-10-10T08:13:17;10.80;99.90
21678;DHT22;11000;50.360;7.582;2022-10-10T08:15:38;10.90;99.90
21678;DHT22;11000;50.360;7.582;2022-10-10T08:17:59;10.80;99.90
21678;DHT22;11000;50.360;7.582;2022-10-10T08:20:20;10.70;99.90
21678;DHT22;11000;50.360;7.582;2022-10-10T08:22:40;10.80;99.90
21678;DHT22;11000;50.360;7.582;2022-10-10T08:25:01;10.90;99.90
21678;DHT22;11000;50.360;7.582;2022-10-10T08:27:21;10.80;99.90
21678;DHT22;11000;50.360;7.582;2022-10-10T08:29:42;10.80;99.90
21678;DHT22;11000;50.360;7.582;2022-10-10T08:32:03;10.70;99.90
21678;DHT22;11000;50.360;7.582;2022-10-10T08:34:23;10.80;99.90
21678;DHT22;11000;50.360;7.582;2022-10-10T08:36:44;10.80;99.90
21678;DHT22;11000;50.360;7.582;2022-10-10T08:39:05;10.90;99.90
21678;DHT22;11000;50.360;7.582;2022-10-10T08:44:10;11.00;99.90
21678;DHT22;11000;50.360;7.582;2022-10-10T08:46:37;11.00;99.90
21678;DHT22;11000;50.360;7.582;2022-10-10T08:49:02;11.10;99.90
21678;DHT22;11000;50.360;7.582;2022-10-10T08:51:31;11.10;99.90
21678;DHT22;11000;50.360;7.582;2022-10-10T08:53:54;11.20;99.90
21678;DHT22;11000;50.360;7.582;2022-10-10T08:56:22;11.30;99.90
21678;DHT22;11000;50.360;7.582;2022-10-10T08:58:48;11.30;99.90
21678;DHT22;11000;50.360;7.582;2022-10-10T09:01:14;11.40;99.90
21678;DHT22;11000;50.360;7.582;2022-10-10T09:03:42;11.50;99.90
21678;DHT22;11000;50.360;7.582;2022-10-10T09:09:02;11.70;99.90
21678;DHT22;11000;50.360;7.582;2022-10-10T09:11:43;11.80;99.90
21678;DHT22;11000;50.360;7.582;2022-10-10T09:14:35;11.90;99.90
21678;DHT22;11000;50.360;7.582;2022-10-10T09:22:51;12.20;99.90
21678;DHT22;11000;50.360;7.582;2022-10-10T09:25:21;12.30;99.90
21678;DHT22;11000;50.360;7.582;2022-10-10T09:27:51;12.40;99.90
21678;DHT22;11000;50.360;7.582;2022-10-10T09:30:19;12.50;99.90
21678;DHT22;11000;50.360;7.582;2022-10-10T09:32:44;12.50;99.90
21678;DHT22;11000;50.360;7.582;2022-10-10T09:35:25;12.60;99.90
21678;DHT22;11000;50.360;7.582;2022-10-10T09:37:49;12.70;99.90
21678;DHT22;11000;50.360;7.582;2022-10-10T09:40:30;12.80;99.90
21678;DHT22;11000;50.360;7.582;2022-10-10T09:42:54;12.80;99.90
21678;DHT22;11000;50.360;7.582;2022-10-10T09:45:22;13.00;99.90
21678;DHT22;11000;50.360;7.582;2022-10-10T09:47:47;13.20;99.90
21678;DHT22;11000;50.360;7.582;2022-10-10T09:50:13;13.30;99.90
21678;DHT22;11000;50.360;7.582;2022-10-10T09:52:36;13.40;99.90
21678;DHT22;11000;50.360;7.582;2022-10-10T09:55:04;13.50;99.90
21678;DHT22;11000;50.360;7.582;2022-10-10T09:57:30;13.60;99.90
21678;DHT22;11000;50.360;7.582;2022-10-10T09:59:51;13.60;99.90
21678;DHT22;11000;50.360;7.582;2022-10-10T10:02:19;13.50;99.90
21678;DHT22;11000;50.360;7.582;2022-10-10T10:04:40;13.70;99.90
21678;DHT22;11000;50.360;7.582;2022-10-10T10:07:28;13.80;99.90
21678;DHT22;11000;50.360;7.582;2022-10-10T10:09:59;13.90;99.90
21678;DHT22;11000;50.360;7.582;2022-10-10T10:12:23;14.00;99.90
21678;DHT22;11000;50.360;7.582;2022-10-10T10:14:44;14.10;99.90
21678;DHT22;11000;50.360;7.582;2022-10-10T10:17:12;14.20;99.90
21678;DHT22;11000;50.360;7.582;2022-10-10T10:19:39;14.30;99.90
21678;DHT22;11000;50.360;7.582;2022-10-10T10:22:00;14.50;99.90
21678;DHT22;11000;50.360;7.582;2022-10-10T10:24:22;14.60;99.90
21678;DHT22;11000;50.360;7.582;2022-10-10T10:26:49;14.80;99.90
21678;DHT22;11000;50.360;7.582;2022-10-10T10:32:13;15.00;99.90
21678;DHT22;11000;50.360;7.582;2022-10-10T10:34:46;15.10;99.90
21678;DHT22;11000;50.360;7.582;2022-10-10T10:37:35;15.40;99.90
21678;DHT22;11000;50.360;7.582;2022-10-10T10:42:53;15.70;99.90
21678;DHT22;11000;50.360;7.582;2022-10-10T10:45:45;15.80;99.90
21678;DHT22;11000;50.360;7.582;2022-10-10T10:48:51;15.90;99.90
21678;DHT22;11000;50.360;7.582;2022-10-10T10:51:31;16.00;99.90
21678;DHT22;11000;50.360;7.582;2022-10-10T10:54:20;16.20;99.90
21678;DHT22;11000;50.360;7.582;2022-10-10T10:57:01;16.40;99.90
21678;DHT22;11000;50.360;7.582;2022-10-10T11:02:00;16.60;99.90
21678;DHT22;11000;50.360;7.582;2022-10-10T11:04:54;16.80;99.90
21678;DHT22;11000;50.360;7.582;2022-10-10T11:07:22;17.00;99.90
21678;DHT22;11000;50.360;7.582;2022-10-10T11:10:21;17.20;99.90
21678;DHT22;11000;50.360;7.582;2022-10-10T11:15:27;17.60;99.90
21678;DHT22;11000;50.360;7.582;2022-10-10T11:18:24;17.80;99.90
21678;DHT22;11000;50.360;7.582;2022-10-10T11:20:51;17.80;99.90
21678;DHT22;11000;50.360;7.582;2022-10-10T11:23:21;18.10;99.90
21678;DHT22;11000;50.360;7.582;2022-10-10T11:26:01;18.40;99.90
21678;DHT22;11000;50.360;7.582;2022-10-10T11:28:36;18.50;99.90
21678;DHT22;11000;50.360;7.582;2022-10-10T11:31:05;18.60;99.90
21678;DHT22;11000;50.360;7.582;2022-10-10T11:33:41;18.60;99.90
21678;DHT22;11000;50.360;7.582;2022-10-10T11:36:11;18.60;99.90
21678;DHT22;11000;50.360;7.582;2022-10-10T11:38:40;18.60;99.90
21678;DHT22;11000;50.360;7.582;2022-10-10T11:41:17;18.70;99.90
21678;DHT22;11000;50.360;7.582;2022-10-10T11:43:52;18.60;99.90
21678;DHT22;11000;50.360;7.582;2022-10-10T11:46:23;18.90;99.90
21678;DHT22;11000;50.360;7.582;2022-10-10T11:49:00;19.10;99.90
21678;DHT22;11000;50.360;7.582;2022-10-10T11:51:33;19.20;99.90
21678;DHT22;11000;50.360;7.582;2022-10-10T11:53:59;19.30;99.90
21678;DHT22;11000;50.360;7.582;2022-10-10T11:56:29;19.30;99.90
21678;DHT22;11000;50.360;7.582;2022-10-10T11:59:19;19.20;99.90
21678;DHT22;11000;50.360;7.582;2022-10-10T12:01:45;19.20;99.90
21678;DHT22;11000;50.360;7.582;2022-10-10T12:04:07;19.40;99.90
21678;DHT22;11000;50.360;7.582;2022-10-10T12:06:55;19.40;99.90
21678;DHT22;11000;50.360;7.582;2022-10-10T12:09:29;19.30;99.90
21678;DHT22;11000;50.360;7.582;2022-10-10T12:12:14;19.20;99.90
21678;DHT22;11000;50.360;7.582;2022-10-10T12:14:41;19.20;99.90
21678;DHT22;11000;50.360;7.582;2022-10-10T12:17:04;19.20;99.90
21678;DHT22;11000;50.360;7.582;2022-10-10T12:19:26;19.30;99.90
21678;DHT22;11000;50.360;7.582;2022-10-10T12:24:20;19.40;99.90
21678;DHT22;11000;50.360;7.582;2022-10-10T12:29:44;19.80;99.90
21678;DHT22;11000;50.360;7.582;2022-10-10T12:34:58;20.30;99.90
21678;DHT22;11000;50.360;7.582;2022-10-10T12:37:27;20.50;99.90
21678;DHT22;11000;50.360;7.582;2022-10-10T12:47:49;20.40;99.90
21678;DHT22;11000;50.360;7.582;2022-10-10T12:50:21;20.30;99.90
21678;DHT22;11000;50.360;7.582;2022-10-10T12:52:53;20.20;99.90
21678;DHT22;11000;50.360;7.582;2022-10-10T12:55:21;20.50;99.90
21678;DHT22;11000;50.360;7.582;2022-10-10T12:57:44;20.50;99.90
21678;DHT22;11000;50.360;7.582;2022-10-10T13:00:35;20.70;99.90
21678;DHT22;11000;50.360;7.582;2022-10-10T13:02:58;20.90;99.90
21678;DHT22;11000;50.360;7.582;2022-10-10T13:05:26;20.90;99.90
21678;DHT22;11000;50.360;7.582;2022-10-10T13:07:48;21.10;99.90
21678;DHT22;11000;50.360;7.582;2022-10-10T13:10:24;21.20;99.90
21678;DHT22;11000;50.360;7.582;2022-10-10T13:15:23;21.40;99.90
21678;DHT22;11000;50.360;7.582;2022-10-10T13:17:43;21.70;99.90
21678;DHT22;11000;50.360;7.582;2022-10-10T13:20:05;21.60;99.90
21678;DHT22;11000;50.360;7.582;2022-10-10T13:22:28;21.70;99.90
21678;DHT22;11000;50.360;7.582;2022-10-10T13:24:50;21.60;99.90
21678;DHT22;11000;50.360;7.582;2022-10-10T13:27:26;21.70;99.90
21678;DHT22;11000;50.360;7.582;2022-10-10T13:29:47;22.00;99.90
21678;DHT22;11000;50.360;7.582;2022-10-10T13:32:13;21.90;99.90
21678;DHT22;11000;50.360;7.582;2022-10-10T13:34:41;22.10;99.90
21678;DHT22;11000;50.360;7.582;2022-10-10T13:37:04;22.40;99.90
21678;DHT22;11000;50.360;7.582;2022-10-10T13:39:26;22.50;99.90
21678;DHT22;11000;50.360;7.582;2022-10-10T13:41:48;22.40;99.90
21678;DHT22;11000;50.360;7.582;2022-10-10T13:44:13;22.30;99.90
21678;DHT22;11000;50.360;7.582;2022-10-10T13:46:34;22.20;99.90
21678;DHT22;11000;50.360;7.582;2022-10-10T13:48:55;22.40;99.90
21678;DHT22;11000;50.360;7.582;2022-10-10T13:51:16;22.50;99.90
21678;DHT22;11000;50.360;7.582;2022-10-10T13:53:51;22.40;99.90
21678;DHT22;11000;50.360;7.582;2022-10-10T13:56:33;22.10;99.90
21678;DHT22;11000;50.360;7.582;2022-10-10T14:03:52;21.50;99.90
21678;DHT22;11000;50.360;7.582;2022-10-10T14:06:18;21.50;99.90
21678;DHT22;11000;50.360;7.582;2022-10-10T14:08:39;21.40;99.90
21678;DHT22;11000;50.360;7.582;2022-10-10T14:11:01;21.50;99.90
21678;DHT22;11000;50.360;7.582;2022-10-10T14:13:23;21.60;99.90
21678;DHT22;11000;50.360;7.582;2022-10-10T14:15:46;21.40;99.90
21678;DHT22;11000;50.360;7.582;2022-10-10T14:20:35;21.40;99.90
21678;DHT22;11000;50.360;7.582;2022-10-10T14:22:56;21.40;99.90
21678;DHT22;11000;50.360;7.582;2022-10-10T14:25:20;21.50;99.90
21678;DHT22;11000;50.360;7.582;2022-10-10T14:27:42;21.50;99.90
21678;DHT22;11000;50.360;7.582;2022-10-10T14:30:03;21.50;99.90
21678;DHT22;11000;50.360;7.582;2022-10-10T14:32:24;21.50;99.90
21678;DHT22;11000;50.360;7.582;2022-10-10T14:34:45;21.30;99.90
21678;DHT22;11000;50.360;7.582;2022-10-10T14:37:27;21.40;99.90
21678;DHT22;11000;50.360;7.582;2022-10-10T14:39:48;21.30;99.90
21678;DHT22;11000;50.360;7.582;2022-10-10T14:42:11;21.20;99.90
21678;DHT22;11000;50.360;7.582;2022-10-10T14:44:33;21.00;99.90
21678;DHT22;11000;50.360;7.582;2022-10-10T14:46:54;21.10;99.90
21678;DHT22;11000;50.360;7.582;2022-10-10T14:49:19;21.00;99.90
21678;DHT22;11000;50.360;7.582;2022-10-10T14:51:40;21.00;99.90
21678;DHT22;11000;50.360;7.582;2022-10-10T14:54:00;21.00;99.90
21678;DHT22;11000;50.360;7.582;2022-10-10T14:56:21;21.10;99.90
21678;DHT22;11000;50.360;7.582;2022-10-10T14:58:42;21.20;99.90
21678;DHT22;11000;50.360;7.582;2022-10-10T15:01:02;21.30;99.90
21678;DHT22;11000;50.360;7.582;2022-10-10T15:03:23;21.20;99.90
21678;DHT22;11000;50.360;7.582;2022-10-10T15:05:43;21.20;99.90
21678;DHT22;11000;50.360;7.582;2022-10-10T15:08:05;21.00;99.90
21678;DHT22;11000;50.360;7.582;2022-10-10T15:10:25;20.90;99.90
21678;DHT22;11000;50.360;7.582;2022-10-10T15:12:46;20.80;99.90
21678;DHT22;11000;50.360;7.582;2022-10-10T15:15:07;20.70;99.90
21678;DHT22;11000;50.360;7.582;2022-10-10T15:17:28;20.60;99.90
21678;DHT22;11000;50.360;7.582;2022-10-10T15:19:50;20.50;99.90
21678;DHT22;11000;50.360;7.582;2022-10-10T15:22:11;20.40;99.90
21678;DHT22;11000;50.360;7.582;2022-10-10T15:24:32;20.30;99.90
21678;DHT22;11000;50.360;7.582;2022-10-10T15:26:54;20.20;99.90
21678;DHT22;11000;50.360;7.582;2022-10-10T15:29:14;20.20;99.90
21678;DHT22;11000;50.360;7.582;2022-10-10T15:31:35;20.10;99.90
21678;DHT22;11000;50.360;7.582;2022-10-10T15:33:55;20.10;99.90
21678;DHT22;11000;50.360;7.582;2022-10-10T15:36:16;20.00;99.90
21678;DHT22;11000;50.360;7.582;2022-10-10T15:38:37;20.00;99.90
21678;DHT22;11000;50.360;7.582;2022-10-10T15:40:58;19.90;99.90
21678;DHT22;11000;50.360;7.582;2022-10-10T15:43:19;19.90;99.90
21678;DHT22;11000;50.360;7.582;2022-10-10T15:45:41;19.90;99.90
21678;DHT22;11000;50.360;7.582;2022-10-10T15:48:03;19.80;99.90
21678;DHT22;11000;50.360;7.582;2022-10-10T15:50:23;19.90;99.90
21678;DHT22;11000;50.360;7.582;2022-10-10T15:52:44;19.80;99.90
21678;DHT22;11000;50.360;7.582;2022-10-10T15:55:05;19.70;99.90
21678;DHT22;11000;50.360;7.582;2022-10-10T15:57:26;19.60;99.90
21678;DHT22;11000;50.360;7.582;2022-10-10T15:59:46;19.50;99.90
21678;DHT22;11000;50.360;7.582;2022-10-10T16:02:11;19.50;99.90
21678;DHT22;11000;50.360;7.582;2022-10-10T16:04:32;19.40;99.90
21678;DHT22;11000;50.360;7.582;2022-10-10T16:06:52;19.30;99.90
21678;DHT22;11000;50.360;7.582;2022-10-10T16:09:13;19.30;99.90
21678;DHT22;11000;50.360;7.582;2022-10-10T16:11:35;19.30;99.90
21678;DHT22;11000;50.360;7.582;2022-10-10T16:13:56;19.20;99.90
21678;DHT22;11000;50.360;7.582;2022-10-10T16:16:19;19.20;99.90
21678;DHT22;11000;50.360;7.582;2022-10-10T16:18:40;19.20;99.90
21678;DHT22;11000;50.360;7.582;2022-10-10T16:21:04;19.10;99.90
21678;DHT22;11000;50.360;7.582;2022-10-10T16:23:26;19.00;99.90
21678;DHT22;11000;50.360;7.582;2022-10-10T16:25:46;19.00;99.90
21678;DHT22;11000;50.360;7.582;2022-10-10T16:28:07;18.90;99.90
21678;DHT22;11000;50.360;7.582;2022-10-10T16:30:27;18.80;99.90
21678;DHT22;11000;50.360;7.582;2022-10-10T16:32:48;18.80;99.90